Карточка аэропорта UAKK

Внимание!
Информация на этой странице в стадии наполнения.
Если вы не увидели какой-то информации, или заметили неточность - пожалуйста сообщите нам!
Спасибо!
Команда RU-STAFF
Название аэропортаКараганда
Название аэропорта (англ.)Karaganda
Превышение1768 ft. (538.9 m.)
Координаты49°40.302', 73°20.118'
Высота перехода10000
Эшелон переходаby ATC
Коды ответчика0630-0637, 7220-7227
Зона ОрВДАстана РПИ (UACN)
Данные METARUAKK 290200Z 23008MPS CAVOK 10/03 Q1019 NOSIG RMK QFE717/0956
Проноз погоды (TAF)UAKK 281702Z 2818/2918 22005MPS 9999 SCT040 SCT100 TX18/2912Z TN03/2824Z TEMPO 2818/2902 3100 BR SCT011 BECMG 2906/2908 26007MPS TEMPO 2906/2914 26008G13MPS BECMG 2914/2916 22003MPS
NOTAMshow/hide NOTAM
AWOS   TABLE

Информация о ВПП

ВПП Длина ВПП (м.) Покрытие Курс ВПП Частота ILS
233601Железобетон230111.7
053601Железобетон50109.9

Диспетчерские позиции




Спутниковое изображение